createdAt,value
2023-01-03T00:02:44.994Z,16.00
2023-01-03T00:12:44.880Z,14.00
2023-01-03T00:22:44.900Z,7.70
2023-01-03T00:32:44.915Z,7.90
2023-01-03T00:42:44.914Z,6.20
2023-01-03T00:52:44.956Z,8.00
2023-01-03T01:02:45.128Z,11.60
2023-01-03T01:12:45.181Z,8.70
2023-01-03T01:22:44.915Z,9.70
2023-01-03T01:32:44.935Z,8.20
2023-01-03T01:42:44.939Z,11.30
2023-01-03T01:52:44.904Z,7.70
2023-01-03T02:02:45.136Z,7.90
2023-01-03T02:12:44.919Z,11.20
2023-01-03T02:22:44.951Z,10.10
2023-01-03T02:32:44.921Z,9.40
2023-01-03T02:42:44.928Z,10.10
2023-01-03T02:52:44.970Z,8.70
2023-01-03T03:02:45.068Z,8.50
2023-01-03T03:12:44.988Z,7.20
2023-01-03T03:22:44.993Z,7.30
2023-01-03T03:32:44.977Z,9.90
2023-01-03T03:42:45.001Z,6.90
2023-01-03T03:52:44.979Z,6.80
2023-01-03T04:02:45.114Z,6.20
2023-01-03T04:12:45.008Z,6.30
2023-01-03T04:22:44.993Z,7.20
2023-01-03T04:32:45.073Z,5.30
2023-01-03T04:42:44.990Z,6.30
2023-01-03T04:52:45.005Z,5.60
2023-01-03T05:02:44.990Z,6.80
2023-01-03T05:12:44.986Z,7.70
2023-01-03T05:32:44.992Z,8.90
2023-01-03T05:42:45.011Z,7.90
2023-01-03T05:52:45.003Z,9.00
2023-01-03T06:02:45.137Z,6.80
2023-01-03T06:12:45.036Z,8.60
2023-01-03T06:22:45.032Z,9.40
2023-01-03T06:32:45.039Z,9.20
2023-01-03T06:42:45.168Z,7.90
2023-01-03T06:52:45.067Z,7.80
2023-01-03T07:02:45.253Z,7.50
2023-01-03T07:12:45.045Z,9.70
2023-01-03T07:22:45.067Z,8.90
2023-01-03T07:32:45.064Z,8.50
2023-01-03T07:42:45.144Z,8.90
2023-01-03T07:52:45.046Z,8.30
2023-01-03T08:02:45.372Z,12.00
2023-01-03T08:12:45.057Z,8.80
2023-01-03T08:22:45.063Z,8.20
2023-01-03T08:32:45.088Z,6.80
2023-01-03T08:42:45.088Z,7.80
2023-01-03T08:52:45.092Z,9.70
2023-01-03T09:02:45.369Z,7.70
2023-01-03T09:12:45.098Z,9.60
2023-01-03T09:22:45.092Z,8.20
2023-01-03T09:32:45.119Z,7.30
2023-01-03T09:42:45.085Z,5.20
2023-01-03T09:52:45.095Z,6.80
2023-01-03T10:02:45.223Z,10.10
2023-01-03T10:12:45.140Z,14.90
2023-01-03T10:22:45.134Z,16.30
2023-01-03T10:32:45.179Z,16.40
2023-01-03T10:42:45.115Z,14.70
2023-01-03T10:52:45.096Z,11.10
2023-01-03T11:02:45.326Z,7.60
2023-01-03T11:12:45.251Z,9.90
2023-01-03T11:22:45.131Z,8.60
2023-01-03T11:32:45.144Z,11.80
2023-01-03T11:42:45.156Z,7.60
2023-01-03T11:52:45.268Z,9.20
2023-01-03T12:02:45.250Z,9.40
2023-01-03T12:12:45.130Z,14.30
2023-01-03T12:22:45.145Z,10.20
2023-01-03T12:32:45.283Z,9.40
2023-01-03T12:42:45.146Z,8.80
2023-01-03T12:52:45.170Z,9.10
2023-01-03T13:02:45.532Z,11.00
2023-01-03T13:12:45.148Z,23.50
2023-01-03T13:22:45.201Z,9.20
2023-01-03T13:32:45.176Z,12.60
2023-01-03T13:42:45.193Z,8.20
2023-01-03T13:52:45.183Z,9.30
2023-01-03T14:02:45.416Z,12.50
2023-01-03T14:12:45.191Z,36.60
2023-01-03T14:22:45.222Z,10.20
2023-01-03T14:32:45.209Z,17.60
2023-01-03T14:42:45.230Z,14.10
2023-01-03T14:52:45.187Z,16.70
2023-01-03T15:02:45.380Z,18.30
2023-01-03T15:12:45.196Z,18.70
2023-01-03T15:22:45.211Z,19.30
2023-01-03T15:32:45.236Z,19.60
2023-01-03T15:42:47.124Z,19.60
2023-01-03T15:52:45.220Z,19.30
2023-01-03T16:02:45.334Z,19.50
2023-01-03T16:12:45.324Z,20.40
2023-01-03T16:22:55.649Z,20.30
2023-01-03T16:32:45.251Z,23.10
2023-01-03T16:42:45.260Z,25.80
2023-01-03T16:52:45.303Z,28.00
2023-01-03T17:02:45.707Z,23.60
2023-01-03T17:12:45.285Z,26.00
2023-01-03T17:22:45.273Z,29.70
2023-01-03T17:32:45.281Z,29.10
2023-01-03T17:42:45.243Z,21.80
2023-01-03T17:52:48.924Z,21.60
2023-01-03T18:02:45.555Z,20.40
2023-01-03T18:12:45.265Z,22.50
2023-01-03T18:22:45.342Z,22.60
2023-01-03T18:32:45.294Z,24.10
2023-01-03T18:42:45.270Z,32.90
2023-01-03T18:52:45.433Z,26.10
2023-01-03T19:02:45.624Z,24.40
2023-01-03T19:12:45.289Z,24.60
2023-01-03T19:22:45.287Z,30.40
2023-01-03T19:32:45.279Z,27.90
2023-01-03T19:42:45.302Z,24.90
2023-01-03T19:52:45.324Z,25.30
2023-01-03T20:02:45.565Z,23.60
2023-01-03T20:12:45.367Z,32.60
2023-01-03T20:23:05.882Z,25.10
2023-01-03T20:32:45.296Z,25.00
2023-01-03T20:42:45.304Z,30.30
2023-01-03T20:52:45.345Z,30.70
2023-01-03T21:02:45.686Z,38.20
2023-01-03T21:12:45.327Z,37.50
2023-01-03T21:22:45.350Z,30.50
2023-01-03T21:32:45.330Z,40.60
2023-01-03T21:42:45.354Z,39.90
2023-01-03T21:52:45.412Z,41.70
2023-01-03T22:02:45.478Z,40.70
2023-01-03T22:12:45.405Z,39.20
2023-01-03T22:22:45.481Z,41.20
2023-01-03T22:32:45.343Z,37.50
2023-01-03T22:52:45.364Z,36.30
2023-01-03T23:02:45.582Z,32.90
2023-01-03T23:12:45.402Z,38.20
2023-01-03T23:22:45.496Z,35.80
2023-01-03T23:32:45.370Z,35.90
2023-01-03T23:42:45.349Z,36.40
2023-01-03T23:52:45.394Z,37.10
